sensor_id;sensor_type;location;lat;lon;timestamp;P1;durP1;ratioP1;P2;durP2;ratioP2
15049;SDS011;7622;42.724;23.250;2023-07-31T00:01:06;4.07;;;3.70;;
15049;SDS011;7622;42.724;23.250;2023-07-31T00:03:33;3.73;;;3.53;;
15049;SDS011;7622;42.724;23.250;2023-07-31T00:05:59;4.10;;;3.80;;
15049;SDS011;7622;42.724;23.250;2023-07-31T00:08:26;5.50;;;3.20;;
15049;SDS011;7622;42.724;23.250;2023-07-31T00:10:54;3.57;;;3.37;;
15049;SDS011;7622;42.724;23.250;2023-07-31T00:13:21;3.70;;;3.50;;
15049;SDS011;7622;42.724;23.250;2023-07-31T00:15:48;4.00;;;3.80;;
15049;SDS011;7622;42.724;23.250;2023-07-31T00:18:15;4.20;;;3.90;;
15049;SDS011;7622;42.724;23.250;2023-07-31T00:20:42;3.43;;;3.30;;
15049;SDS011;7622;42.724;23.250;2023-07-31T00:23:08;4.83;;;4.47;;
15049;SDS011;7622;42.724;23.250;2023-07-31T00:25:36;4.53;;;4.13;;
15049;SDS011;7622;42.724;23.250;2023-07-31T00:28:04;4.47;;;4.07;;
15049;SDS011;7622;42.724;23.250;2023-07-31T00:30:31;4.27;;;4.03;;
15049;SDS011;7622;42.724;23.250;2023-07-31T00:32:58;5.20;;;4.80;;
15049;SDS011;7622;42.724;23.250;2023-07-31T00:35:25;4.63;;;4.23;;
15049;SDS011;7622;42.724;23.250;2023-07-31T00:37:51;4.37;;;4.17;;
15049;SDS011;7622;42.724;23.250;2023-07-31T00:40:20;4.70;;;4.40;;
15049;SDS011;7622;42.724;23.250;2023-07-31T00:42:46;5.60;;;5.20;;
15049;SDS011;7622;42.724;23.250;2023-07-31T00:45:14;5.90;;;5.50;;
15049;SDS011;7622;42.724;23.250;2023-07-31T00:47:41;7.30;;;6.63;;
15049;SDS011;7622;42.724;23.250;2023-07-31T00:50:08;7.83;;;7.20;;
15049;SDS011;7622;42.724;23.250;2023-07-31T00:52:35;8.57;;;7.97;;
15049;SDS011;7622;42.724;23.250;2023-07-31T00:55:02;9.80;;;9.03;;
15049;SDS011;7622;42.724;23.250;2023-07-31T00:57:30;9.70;;;9.10;;
15049;SDS011;7622;42.724;23.250;2023-07-31T00:59:58;11.13;;;10.13;;
15049;SDS011;7622;42.724;23.250;2023-07-31T01:02:27;10.80;;;9.73;;
15049;SDS011;7622;42.724;23.250;2023-07-31T01:04:53;10.60;;;9.70;;
15049;SDS011;7622;42.724;23.250;2023-07-31T01:07:22;10.63;;;9.80;;
15049;SDS011;7622;42.724;23.250;2023-07-31T01:09:56;11.13;;;10.23;;
15049;SDS011;7622;42.724;23.250;2023-07-31T01:12:30;12.40;;;11.50;;
15049;SDS011;7622;42.724;23.250;2023-07-31T01:15:04;14.63;;;11.70;;
15049;SDS011;7622;42.724;23.250;2023-07-31T01:17:37;13.40;;;12.30;;
15049;SDS011;7622;42.724;23.250;2023-07-31T01:20:05;12.63;;;11.60;;
15049;SDS011;7622;42.724;23.250;2023-07-31T01:22:40;14.00;;;12.80;;
15049;SDS011;7622;42.724;23.250;2023-07-31T01:25:26;14.47;;;13.17;;
15049;SDS011;7622;42.724;23.250;2023-07-31T01:28:07;14.70;;;13.40;;
15049;SDS011;7622;42.724;23.250;2023-07-31T01:30:41;16.27;;;14.67;;
15049;SDS011;7622;42.724;23.250;2023-07-31T01:33:13;14.83;;;13.53;;
15049;SDS011;7622;42.724;23.250;2023-07-31T01:35:42;16.13;;;14.67;;
15049;SDS011;7622;42.724;23.250;2023-07-31T01:38:10;17.30;;;15.63;;
15049;SDS011;7622;42.724;23.250;2023-07-31T01:40:37;18.33;;;16.73;;
15049;SDS011;7622;42.724;23.250;2023-07-31T01:43:04;17.47;;;15.70;;
15049;SDS011;7622;42.724;23.250;2023-07-31T01:45:32;19.70;;;17.80;;
15049;SDS011;7622;42.724;23.250;2023-07-31T01:47:58;19.40;;;17.60;;
15049;SDS011;7622;42.724;23.250;2023-07-31T01:50:25;19.40;;;17.60;;
15049;SDS011;7622;42.724;23.250;2023-07-31T01:52:52;19.37;;;17.47;;
15049;SDS011;7622;42.724;23.250;2023-07-31T01:55:18;21.07;;;18.87;;
15049;SDS011;7622;42.724;23.250;2023-07-31T01:57:45;20.20;;;18.10;;
15049;SDS011;7622;42.724;23.250;2023-07-31T02:00:13;20.47;;;18.43;;
15049;SDS011;7622;42.724;23.250;2023-07-31T02:02:41;22.07;;;19.83;;
15049;SDS011;7622;42.724;23.250;2023-07-31T02:05:08;21.30;;;19.20;;
15049;SDS011;7622;42.724;23.250;2023-07-31T02:07:35;20.53;;;18.50;;
15049;SDS011;7622;42.724;23.250;2023-07-31T02:10:02;22.30;;;20.10;;
15049;SDS011;7622;42.724;23.250;2023-07-31T02:12:28;20.87;;;18.87;;
15049;SDS011;7622;42.724;23.250;2023-07-31T02:14:57;22.47;;;20.23;;
15049;SDS011;7622;42.724;23.250;2023-07-31T02:17:24;21.37;;;19.10;;
15049;SDS011;7622;42.724;23.250;2023-07-31T02:19:52;23.77;;;21.27;;
15049;SDS011;7622;42.724;23.250;2023-07-31T02:22:19;22.53;;;20.33;;
15049;SDS011;7622;42.724;23.250;2023-07-31T02:24:46;22.03;;;20.10;;
15049;SDS011;7622;42.724;23.250;2023-07-31T02:27:13;21.57;;;19.40;;
15049;SDS011;7622;42.724;23.250;2023-07-31T02:29:39;23.50;;;20.53;;
15049;SDS011;7622;42.724;23.250;2023-07-31T02:32:06;21.63;;;19.40;;
15049;SDS011;7622;42.724;23.250;2023-07-31T02:34:33;21.17;;;18.97;;
15049;SDS011;7622;42.724;23.250;2023-07-31T02:37:01;22.70;;;20.50;;
15049;SDS011;7622;42.724;23.250;2023-07-31T02:39:28;22.93;;;20.43;;
15049;SDS011;7622;42.724;23.250;2023-07-31T02:41:55;22.10;;;19.93;;
15049;SDS011;7622;42.724;23.250;2023-07-31T02:44:21;21.00;;;19.03;;
15049;SDS011;7622;42.724;23.250;2023-07-31T02:46:48;23.13;;;20.83;;
15049;SDS011;7622;42.724;23.250;2023-07-31T02:49:15;22.17;;;19.97;;
15049;SDS011;7622;42.724;23.250;2023-07-31T02:51:42;22.23;;;20.03;;
15049;SDS011;7622;42.724;23.250;2023-07-31T02:54:10;21.93;;;19.83;;
15049;SDS011;7622;42.724;23.250;2023-07-31T02:56:37;23.10;;;20.77;;
15049;SDS011;7622;42.724;23.250;2023-07-31T02:59:03;23.03;;;20.73;;
15049;SDS011;7622;42.724;23.250;2023-07-31T03:01:30;21.97;;;19.93;;
15049;SDS011;7622;42.724;23.250;2023-07-31T03:03:57;23.37;;;20.93;;
15049;SDS011;7622;42.724;23.250;2023-07-31T03:06:24;23.70;;;21.27;;
15049;SDS011;7622;42.724;23.250;2023-07-31T03:08:52;25.10;;;22.43;;
15049;SDS011;7622;42.724;23.250;2023-07-31T03:11:20;25.20;;;22.57;;
15049;SDS011;7622;42.724;23.250;2023-07-31T03:13:47;24.60;;;21.23;;
15049;SDS011;7622;42.724;23.250;2023-07-31T03:16:13;23.30;;;20.97;;
15049;SDS011;7622;42.724;23.250;2023-07-31T03:18:40;25.00;;;22.53;;
15049;SDS011;7622;42.724;23.250;2023-07-31T03:21:07;23.00;;;20.80;;
15049;SDS011;7622;42.724;23.250;2023-07-31T03:23:34;22.87;;;20.57;;
15049;SDS011;7622;42.724;23.250;2023-07-31T03:26:01;22.33;;;20.07;;
15049;SDS011;7622;42.724;23.250;2023-07-31T03:28:31;22.33;;;20.03;;
15049;SDS011;7622;42.724;23.250;2023-07-31T03:30:57;22.60;;;20.37;;
15049;SDS011;7622;42.724;23.250;2023-07-31T03:33:24;20.93;;;18.93;;
15049;SDS011;7622;42.724;23.250;2023-07-31T03:35:52;22.73;;;20.47;;
15049;SDS011;7622;42.724;23.250;2023-07-31T03:38:18;22.33;;;20.03;;
15049;SDS011;7622;42.724;23.250;2023-07-31T03:40:45;22.53;;;20.13;;
15049;SDS011;7622;42.724;23.250;2023-07-31T03:43:12;24.87;;;21.27;;
15049;SDS011;7622;42.724;23.250;2023-07-31T03:45:40;24.57;;;20.43;;
15049;SDS011;7622;42.724;23.250;2023-07-31T03:48:07;23.90;;;21.33;;
15049;SDS011;7622;42.724;23.250;2023-07-31T03:50:34;23.27;;;20.97;;
15049;SDS011;7622;42.724;23.250;2023-07-31T03:53:01;24.73;;;22.07;;
15049;SDS011;7622;42.724;23.250;2023-07-31T03:55:27;25.20;;;22.43;;
15049;SDS011;7622;42.724;23.250;2023-07-31T03:57:54;23.90;;;21.40;;
15049;SDS011;7622;42.724;23.250;2023-07-31T04:00:21;24.40;;;21.80;;
15049;SDS011;7622;42.724;23.250;2023-07-31T04:02:49;28.40;;;24.63;;
15049;SDS011;7622;42.724;23.250;2023-07-31T04:05:16;28.07;;;23.23;;
15049;SDS011;7622;42.724;23.250;2023-07-31T04:07:43;26.10;;;23.30;;
15049;SDS011;7622;42.724;23.250;2023-07-31T04:10:10;26.70;;;23.33;;
15049;SDS011;7622;42.724;23.250;2023-07-31T04:12:36;25.30;;;22.57;;
15049;SDS011;7622;42.724;23.250;2023-07-31T04:15:03;26.37;;;22.50;;
15049;SDS011;7622;42.724;23.250;2023-07-31T04:17:31;26.97;;;22.27;;
15049;SDS011;7622;42.724;23.250;2023-07-31T04:19:59;23.53;;;20.90;;
15049;SDS011;7622;42.724;23.250;2023-07-31T04:22:25;24.27;;;21.17;;
15049;SDS011;7622;42.724;23.250;2023-07-31T04:24:52;24.60;;;21.83;;
15049;SDS011;7622;42.724;23.250;2023-07-31T04:27:19;27.93;;;21.97;;
15049;SDS011;7622;42.724;23.250;2023-07-31T04:29:45;24.87;;;21.47;;
15049;SDS011;7622;42.724;23.250;2023-07-31T04:32:12;30.30;;;22.23;;
15049;SDS011;7622;42.724;23.250;2023-07-31T04:34:40;25.17;;;21.70;;
15049;SDS011;7622;42.724;23.250;2023-07-31T04:37:08;23.70;;;21.20;;
15049;SDS011;7622;42.724;23.250;2023-07-31T04:39:35;24.97;;;21.17;;
15049;SDS011;7622;42.724;23.250;2023-07-31T04:42:02;23.60;;;20.63;;
15049;SDS011;7622;42.724;23.250;2023-07-31T04:44:29;22.10;;;19.90;;
15049;SDS011;7622;42.724;23.250;2023-07-31T04:46:56;22.07;;;19.50;;
15049;SDS011;7622;42.724;23.250;2023-07-31T04:49:23;22.67;;;19.83;;
15049;SDS011;7622;42.724;23.250;2023-07-31T04:51:50;21.40;;;19.30;;
15049;SDS011;7622;42.724;23.250;2023-07-31T04:54:18;21.17;;;19.07;;
15049;SDS011;7622;42.724;23.250;2023-07-31T04:56:44;22.47;;;19.13;;
15049;SDS011;7622;42.724;23.250;2023-07-31T04:59:12;20.20;;;18.20;;
15049;SDS011;7622;42.724;23.250;2023-07-31T05:01:39;19.40;;;17.60;;
15049;SDS011;7622;42.724;23.250;2023-07-31T05:04:05;21.53;;;18.03;;
15049;SDS011;7622;42.724;23.250;2023-07-31T05:06:32;19.33;;;17.33;;
15049;SDS011;7622;42.724;23.250;2023-07-31T05:08:59;19.97;;;16.67;;
15049;SDS011;7622;42.724;23.250;2023-07-31T05:11:27;19.00;;;17.13;;
15049;SDS011;7622;42.724;23.250;2023-07-31T05:13:54;19.33;;;17.33;;
15049;SDS011;7622;42.724;23.250;2023-07-31T05:16:20;20.60;;;18.70;;
15049;SDS011;7622;42.724;23.250;2023-07-31T05:18:47;20.13;;;18.13;;
15049;SDS011;7622;42.724;23.250;2023-07-31T05:21:14;18.67;;;16.97;;
15049;SDS011;7622;42.724;23.250;2023-07-31T05:23:41;16.73;;;15.10;;
15049;SDS011;7622;42.724;23.250;2023-07-31T05:26:07;17.10;;;15.40;;
15049;SDS011;7622;42.724;23.250;2023-07-31T05:28:36;15.07;;;13.60;;
15049;SDS011;7622;42.724;23.250;2023-07-31T05:31:03;15.10;;;13.67;;
15049;SDS011;7622;42.724;23.250;2023-07-31T05:33:30;13.53;;;12.40;;
15049;SDS011;7622;42.724;23.250;2023-07-31T05:35:57;13.23;;;12.23;;
15049;SDS011;7622;42.724;23.250;2023-07-31T05:38:24;12.53;;;11.33;;
15049;SDS011;7622;42.724;23.250;2023-07-31T05:40:51;10.83;;;10.03;;
15049;SDS011;7622;42.724;23.250;2023-07-31T05:43:18;10.17;;;9.47;;
15049;SDS011;7622;42.724;23.250;2023-07-31T05:45:46;9.47;;;8.57;;
15049;SDS011;7622;42.724;23.250;2023-07-31T05:48:13;9.40;;;8.50;;
15049;SDS011;7622;42.724;23.250;2023-07-31T05:50:40;9.00;;;8.23;;
15049;SDS011;7622;42.724;23.250;2023-07-31T05:53:07;9.83;;;8.23;;
15049;SDS011;7622;42.724;23.250;2023-07-31T05:55:33;8.67;;;7.97;;
15049;SDS011;7622;42.724;23.250;2023-07-31T05:58:00;8.13;;;7.53;;
15049;SDS011;7622;42.724;23.250;2023-07-31T06:00:27;7.13;;;6.53;;
15049;SDS011;7622;42.724;23.250;2023-07-31T06:02:55;7.87;;;7.13;;
15049;SDS011;7622;42.724;23.250;2023-07-31T06:05:22;8.07;;;6.57;;
15049;SDS011;7622;42.724;23.250;2023-07-31T06:07:49;6.40;;;6.00;;
15049;SDS011;7622;42.724;23.250;2023-07-31T06:10:16;6.17;;;5.77;;
15049;SDS011;7622;42.724;23.250;2023-07-31T06:12:42;6.63;;;6.10;;
15049;SDS011;7622;42.724;23.250;2023-07-31T06:15:09;5.90;;;5.60;;
15049;SDS011;7622;42.724;23.250;2023-07-31T06:17:36;5.83;;;5.43;;
15049;SDS011;7622;42.724;23.250;2023-07-31T06:20:05;7.80;;;5.50;;
15049;SDS011;7622;42.724;23.250;2023-07-31T06:22:33;5.40;;;5.10;;
15049;SDS011;7622;42.724;23.250;2023-07-31T06:24:59;5.60;;;5.20;;
15049;SDS011;7622;42.724;23.250;2023-07-31T06:27:26;5.30;;;4.80;;
15049;SDS011;7622;42.724;23.250;2023-07-31T06:29:53;5.80;;;5.27;;
15049;SDS011;7622;42.724;23.250;2023-07-31T06:32:20;5.00;;;4.70;;
15049;SDS011;7622;42.724;23.250;2023-07-31T06:34:46;5.20;;;4.80;;
15049;SDS011;7622;42.724;23.250;2023-07-31T06:37:14;7.60;;;4.93;;
15049;SDS011;7622;42.724;23.250;2023-07-31T06:39:42;7.83;;;4.87;;
15049;SDS011;7622;42.724;23.250;2023-07-31T06:42:09;4.80;;;4.00;;
15049;SDS011;7622;42.724;23.250;2023-07-31T06:44:35;11.63;;;4.53;;
15049;SDS011;7622;42.724;23.250;2023-07-31T06:47:02;5.13;;;4.53;;
15049;SDS011;7622;42.724;23.250;2023-07-31T06:49:29;4.57;;;4.20;;
15049;SDS011;7622;42.724;23.250;2023-07-31T06:51:56;4.33;;;4.00;;
15049;SDS011;7622;42.724;23.250;2023-07-31T06:54:24;4.40;;;4.10;;
15049;SDS011;7622;42.724;23.250;2023-07-31T06:56:51;3.97;;;3.77;;
15049;SDS011;7622;42.724;23.250;2023-07-31T06:59:17;4.33;;;4.03;;
15049;SDS011;7622;42.724;23.250;2023-07-31T07:01:44;3.97;;;3.57;;
15049;SDS011;7622;42.724;23.250;2023-07-31T07:04:11;4.70;;;4.30;;
15049;SDS011;7622;42.724;23.250;2023-07-31T07:06:38;9.17;;;3.60;;
15049;SDS011;7622;42.724;23.250;2023-07-31T07:09:04;3.50;;;3.30;;
15049;SDS011;7622;42.724;23.250;2023-07-31T07:11:32;4.40;;;3.53;;
15049;SDS011;7622;42.724;23.250;2023-07-31T07:13:59;3.95;;;3.63;;
15049;SDS011;7622;42.724;23.250;2023-07-31T07:16:28;4.90;;;3.92;;
15049;SDS011;7622;42.724;23.250;2023-07-31T07:18:55;3.87;;;3.67;;
15049;SDS011;7622;42.724;23.250;2023-07-31T07:21:21;3.40;;;3.20;;
15049;SDS011;7622;42.724;23.250;2023-07-31T07:23:48;6.40;;;4.07;;
15049;SDS011;7622;42.724;23.250;2023-07-31T07:26:15;5.87;;;3.67;;
15049;SDS011;7622;42.724;23.250;2023-07-31T07:28:43;3.90;;;3.27;;
15049;SDS011;7622;42.724;23.250;2023-07-31T07:31:10;4.60;;;3.80;;
15049;SDS011;7622;42.724;23.250;2023-07-31T07:33:36;4.22;;;3.80;;
15049;SDS011;7622;42.724;23.250;2023-07-31T07:36:03;6.82;;;3.60;;
15049;SDS011;7622;42.724;23.250;2023-07-31T07:38:34;4.13;;;3.83;;
15049;SDS011;7622;42.724;23.250;2023-07-31T07:41:01;6.37;;;4.23;;
15049;SDS011;7622;42.724;23.250;2023-07-31T07:43:28;6.60;;;3.63;;
15049;SDS011;7622;42.724;23.250;2023-07-31T07:45:56;3.72;;;3.25;;
15049;SDS011;7622;42.724;23.250;2023-07-31T07:48:23;4.50;;;3.40;;
15049;SDS011;7622;42.724;23.250;2023-07-31T07:50:50;4.53;;;3.47;;
15049;SDS011;7622;42.724;23.250;2023-07-31T07:53:17;5.28;;;3.30;;
15049;SDS011;7622;42.724;23.250;2023-07-31T07:55:43;3.58;;;3.35;;
15049;SDS011;7622;42.724;23.250;2023-07-31T07:58:10;3.78;;;3.45;;
15049;SDS011;7622;42.724;23.250;2023-07-31T08:00:37;3.90;;;3.60;;
15049;SDS011;7622;42.724;23.250;2023-07-31T08:03:05;6.45;;;3.33;;
15049;SDS011;7622;42.724;23.250;2023-07-31T08:05:32;5.57;;;3.20;;
15049;SDS011;7622;42.724;23.250;2023-07-31T08:08:00;3.20;;;3.00;;
15049;SDS011;7622;42.724;23.250;2023-07-31T08:10:26;4.07;;;3.22;;
15049;SDS011;7622;42.724;23.250;2023-07-31T08:12:53;4.60;;;3.22;;
15049;SDS011;7622;42.724;23.250;2023-07-31T08:15:20;3.28;;;3.15;;
15049;SDS011;7622;42.724;23.250;2023-07-31T08:17:46;5.43;;;3.10;;
15049;SDS011;7622;42.724;23.250;2023-07-31T08:20:15;3.58;;;3.17;;
15049;SDS011;7622;42.724;23.250;2023-07-31T08:22:41;3.25;;;2.75;;
15049;SDS011;7622;42.724;23.250;2023-07-31T08:25:08;4.43;;;2.72;;
15049;SDS011;7622;42.724;23.250;2023-07-31T08:27:35;3.47;;;3.17;;
15049;SDS011;7622;42.724;23.250;2023-07-31T08:30:02;6.68;;;3.70;;
15049;SDS011;7622;42.724;23.250;2023-07-31T08:32:29;3.45;;;3.15;;
15049;SDS011;7622;42.724;23.250;2023-07-31T08:34:55;3.60;;;3.40;;
15049;SDS011;7622;42.724;23.250;2023-07-31T08:37:24;3.53;;;3.33;;
15049;SDS011;7622;42.724;23.250;2023-07-31T08:39:50;3.03;;;2.80;;
15049;SDS011;7622;42.724;23.250;2023-07-31T08:42:17;6.43;;;2.97;;
15049;SDS011;7622;42.724;23.250;2023-07-31T08:44:44;2.88;;;2.78;;
15049;SDS011;7622;42.724;23.250;2023-07-31T08:47:12;3.38;;;3.17;;
15049;SDS011;7622;42.724;23.250;2023-07-31T08:49:40;3.00;;;2.67;;
15049;SDS011;7622;42.724;23.250;2023-07-31T08:52:08;3.08;;;2.88;;
15049;SDS011;7622;42.724;23.250;2023-07-31T08:54:37;4.97;;;2.72;;
15049;SDS011;7622;42.724;23.250;2023-07-31T08:57:05;2.85;;;2.65;;
15049;SDS011;7622;42.724;23.250;2023-07-31T08:59:34;3.63;;;3.15;;
15049;SDS011;7622;42.724;23.250;2023-07-31T09:02:03;7.47;;;3.47;;
15049;SDS011;7622;42.724;23.250;2023-07-31T09:04:32;4.03;;;2.83;;
15049;SDS011;7622;42.724;23.250;2023-07-31T09:07:00;3.95;;;2.92;;
15049;SDS011;7622;42.724;23.250;2023-07-31T09:09:29;3.15;;;2.90;;
15049;SDS011;7622;42.724;23.250;2023-07-31T09:11:57;3.38;;;3.13;;
15049;SDS011;7622;42.724;23.250;2023-07-31T09:14:24;3.50;;;3.00;;
15049;SDS011;7622;42.724;23.250;2023-07-31T09:16:52;4.03;;;2.90;;
15049;SDS011;7622;42.724;23.250;2023-07-31T09:19:26;3.00;;;2.80;;
15049;SDS011;7622;42.724;23.250;2023-07-31T09:21:54;4.03;;;3.10;;
15049;SDS011;7622;42.724;23.250;2023-07-31T09:24:26;3.55;;;2.97;;
15049;SDS011;7622;42.724;23.250;2023-07-31T09:26:53;2.97;;;2.78;;
15049;SDS011;7622;42.724;23.250;2023-07-31T09:29:22;3.15;;;2.95;;
15049;SDS011;7622;42.724;23.250;2023-07-31T09:31:49;3.25;;;2.95;;
15049;SDS011;7622;42.724;23.250;2023-07-31T09:34:16;4.25;;;2.70;;
15049;SDS011;7622;42.724;23.250;2023-07-31T09:36:43;2.55;;;2.45;;
15049;SDS011;7622;42.724;23.250;2023-07-31T09:39:11;2.53;;;2.42;;
15049;SDS011;7622;42.724;23.250;2023-07-31T09:41:40;2.75;;;2.55;;
15049;SDS011;7622;42.724;23.250;2023-07-31T09:44:09;3.70;;;2.33;;
15049;SDS011;7622;42.724;23.250;2023-07-31T09:46:37;2.65;;;2.50;;
15049;SDS011;7622;42.724;23.250;2023-07-31T09:49:05;5.50;;;2.15;;
15049;SDS011;7622;42.724;23.250;2023-07-31T09:51:34;4.13;;;2.70;;
15049;SDS011;7622;42.724;23.250;2023-07-31T09:54:04;6.55;;;2.75;;
15049;SDS011;7622;42.724;23.250;2023-07-31T09:56:36;4.95;;;2.60;;
15049;SDS011;7622;42.724;23.250;2023-07-31T09:59:07;2.13;;;2.03;;
15049;SDS011;7622;42.724;23.250;2023-07-31T10:01:38;2.88;;;2.58;;
15049;SDS011;7622;42.724;23.250;2023-07-31T10:04:05;6.05;;;2.65;;
15049;SDS011;7622;42.724;23.250;2023-07-31T10:06:34;2.28;;;2.05;;
15049;SDS011;7622;42.724;23.250;2023-07-31T10:09:02;4.40;;;2.03;;
15049;SDS011;7622;42.724;23.250;2023-07-31T10:11:31;3.50;;;2.13;;
15049;SDS011;7622;42.724;23.250;2023-07-31T10:14:04;3.67;;;2.22;;
15049;SDS011;7622;42.724;23.250;2023-07-31T10:16:33;2.90;;;2.55;;
15049;SDS011;7622;42.724;23.250;2023-07-31T10:19:03;2.65;;;2.45;;
15049;SDS011;7622;42.724;23.250;2023-07-31T10:21:31;2.38;;;2.28;;
15049;SDS011;7622;42.724;23.250;2023-07-31T10:24:01;2.05;;;1.95;;
15049;SDS011;7622;42.724;23.250;2023-07-31T10:26:29;2.30;;;2.20;;
15049;SDS011;7622;42.724;23.250;2023-07-31T10:28:57;2.45;;;2.30;;
15049;SDS011;7622;42.724;23.250;2023-07-31T10:31:25;2.65;;;2.03;;
15049;SDS011;7622;42.724;23.250;2023-07-31T10:33:53;2.42;;;2.33;;
15049;SDS011;7622;42.724;23.250;2023-07-31T10:36:22;2.83;;;2.28;;
15049;SDS011;7622;42.724;23.250;2023-07-31T10:38:48;2.30;;;2.10;;
15049;SDS011;7622;42.724;23.250;2023-07-31T10:41:16;2.35;;;2.15;;
15049;SDS011;7622;42.724;23.250;2023-07-31T10:43:44;2.20;;;2.05;;
15049;SDS011;7622;42.724;23.250;2023-07-31T10:46:12;1.88;;;1.60;;
15049;SDS011;7622;42.724;23.250;2023-07-31T10:48:40;2.67;;;2.10;;
15049;SDS011;7622;42.724;23.250;2023-07-31T10:51:08;1.92;;;1.83;;
15049;SDS011;7622;42.724;23.250;2023-07-31T10:53:37;1.95;;;1.85;;
15049;SDS011;7622;42.724;23.250;2023-07-31T10:56:06;3.85;;;2.10;;
15049;SDS011;7622;42.724;23.250;2023-07-31T10:58:33;3.17;;;1.90;;
15049;SDS011;7622;42.724;23.250;2023-07-31T11:01:01;1.88;;;1.77;;
15049;SDS011;7622;42.724;23.250;2023-07-31T11:03:40;3.17;;;2.00;;
15049;SDS011;7622;42.724;23.250;2023-07-31T11:06:08;2.60;;;2.38;;
15049;SDS011;7622;42.724;23.250;2023-07-31T11:08:35;3.20;;;2.50;;
15049;SDS011;7622;42.724;23.250;2023-07-31T11:11:10;2.30;;;2.10;;
15049;SDS011;7622;42.724;23.250;2023-07-31T11:13:41;2.33;;;2.15;;
15049;SDS011;7622;42.724;23.250;2023-07-31T11:16:09;3.90;;;2.45;;
15049;SDS011;7622;42.724;23.250;2023-07-31T11:18:38;2.72;;;2.00;;
15049;SDS011;7622;42.724;23.250;2023-07-31T11:21:06;2.00;;;1.90;;
15049;SDS011;7622;42.724;23.250;2023-07-31T11:23:33;1.83;;;1.73;;
15049;SDS011;7622;42.724;23.250;2023-07-31T11:26:01;4.53;;;3.00;;
15049;SDS011;7622;42.724;23.250;2023-07-31T11:28:31;3.10;;;2.80;;
15049;SDS011;7622;42.724;23.250;2023-07-31T11:30:59;3.45;;;2.78;;
15049;SDS011;7622;42.724;23.250;2023-07-31T11:33:26;2.80;;;2.60;;
15049;SDS011;7622;42.724;23.250;2023-07-31T11:35:53;2.80;;;2.60;;
15049;SDS011;7622;42.724;23.250;2023-07-31T11:38:21;5.47;;;2.97;;
15049;SDS011;7622;42.724;23.250;2023-07-31T11:40:49;2.70;;;2.50;;
15049;SDS011;7622;42.724;23.250;2023-07-31T11:43:17;6.88;;;3.05;;
15049;SDS011;7622;42.724;23.250;2023-07-31T11:45:45;3.28;;;3.08;;
15049;SDS011;7622;42.724;23.250;2023-07-31T11:48:18;10.95;;;3.95;;
15049;SDS011;7622;42.724;23.250;2023-07-31T11:50:46;4.53;;;4.00;;
15049;SDS011;7622;42.724;23.250;2023-07-31T11:53:14;4.63;;;3.95;;
15049;SDS011;7622;42.724;23.250;2023-07-31T11:55:43;4.20;;;4.00;;
15049;SDS011;7622;42.724;23.250;2023-07-31T11:58:10;7.03;;;4.70;;
15049;SDS011;7622;42.724;23.250;2023-07-31T12:00:39;5.80;;;5.28;;
15049;SDS011;7622;42.724;23.250;2023-07-31T12:03:06;5.70;;;5.30;;
15049;SDS011;7622;42.724;23.250;2023-07-31T12:05:33;6.35;;;5.50;;
15049;SDS011;7622;42.724;23.250;2023-07-31T12:08:00;6.32;;;3.95;;
15049;SDS011;7622;42.724;23.250;2023-07-31T12:10:27;5.53;;;5.10;;
15049;SDS011;7622;42.724;23.250;2023-07-31T12:13:01;5.90;;;5.40;;
15049;SDS011;7622;42.724;23.250;2023-07-31T12:15:33;5.38;;;5.07;;
15049;SDS011;7622;42.724;23.250;2023-07-31T12:18:05;5.32;;;4.93;;
15049;SDS011;7622;42.724;23.250;2023-07-31T12:20:33;5.32;;;4.47;;
15049;SDS011;7622;42.724;23.250;2023-07-31T12:23:00;5.13;;;4.82;;
15049;SDS011;7622;42.724;23.250;2023-07-31T12:25:30;4.78;;;4.38;;
15049;SDS011;7622;42.724;23.250;2023-07-31T12:27:58;7.38;;;5.18;;
15049;SDS011;7622;42.724;23.250;2023-07-31T12:30:32;6.97;;;5.60;;
15049;SDS011;7622;42.724;23.250;2023-07-31T12:33:02;6.18;;;5.65;;
15049;SDS011;7622;42.724;23.250;2023-07-31T12:35:35;6.15;;;5.65;;
15049;SDS011;7622;42.724;23.250;2023-07-31T12:38:03;5.57;;;5.28;;
15049;SDS011;7622;42.724;23.250;2023-07-31T12:40:30;6.32;;;5.50;;
15049;SDS011;7622;42.724;23.250;2023-07-31T12:42:57;5.75;;;5.35;;
15049;SDS011;7622;42.724;23.250;2023-07-31T12:45:24;5.40;;;5.00;;
15049;SDS011;7622;42.724;23.250;2023-07-31T12:47:51;5.63;;;5.22;;
15049;SDS011;7622;42.724;23.250;2023-07-31T12:50:19;6.20;;;5.68;;
15049;SDS011;7622;42.724;23.250;2023-07-31T12:52:45;6.40;;;5.93;;
15049;SDS011;7622;42.724;23.250;2023-07-31T12:55:12;6.90;;;6.40;;
15049;SDS011;7622;42.724;23.250;2023-07-31T12:57:40;5.68;;;5.38;;
15049;SDS011;7622;42.724;23.250;2023-07-31T13:00:07;4.95;;;4.75;;
15049;SDS011;7622;42.724;23.250;2023-07-31T13:02:34;5.45;;;4.95;;
15049;SDS011;7622;42.724;23.250;2023-07-31T13:05:01;4.95;;;4.65;;
15049;SDS011;7622;42.724;23.250;2023-07-31T13:07:29;7.32;;;5.10;;
15049;SDS011;7622;42.724;23.250;2023-07-31T13:09:56;5.03;;;4.72;;
15049;SDS011;7622;42.724;23.250;2023-07-31T13:12:23;5.25;;;4.75;;
15049;SDS011;7622;42.724;23.250;2023-07-31T13:14:50;4.95;;;4.50;;
15049;SDS011;7622;42.724;23.250;2023-07-31T13:17:17;4.72;;;4.32;;
15049;SDS011;7622;42.724;23.250;2023-07-31T13:19:44;7.70;;;5.65;;
15049;SDS011;7622;42.724;23.250;2023-07-31T13:22:11;5.68;;;4.10;;
15049;SDS011;7622;42.724;23.250;2023-07-31T13:24:39;4.30;;;3.90;;
15049;SDS011;7622;42.724;23.250;2023-07-31T13:27:05;3.97;;;3.75;;
15049;SDS011;7622;42.724;23.250;2023-07-31T13:29:32;5.57;;;4.68;;
15049;SDS011;7622;42.724;23.250;2023-07-31T13:31:59;4.35;;;3.95;;
15049;SDS011;7622;42.724;23.250;2023-07-31T13:34:26;4.75;;;3.92;;
15049;SDS011;7622;42.724;23.250;2023-07-31T13:36:53;5.18;;;3.92;;
15049;SDS011;7622;42.724;23.250;2023-07-31T13:39:20;4.50;;;4.30;;
15049;SDS011;7622;42.724;23.250;2023-07-31T13:41:48;8.02;;;3.65;;
15049;SDS011;7622;42.724;23.250;2023-07-31T13:44:15;4.97;;;4.40;;
15049;SDS011;7622;42.724;23.250;2023-07-31T13:46:41;4.57;;;4.28;;
15049;SDS011;7622;42.724;23.250;2023-07-31T13:49:08;4.10;;;3.80;;
15049;SDS011;7622;42.724;23.250;2023-07-31T13:51:35;3.97;;;3.65;;
15049;SDS011;7622;42.724;23.250;2023-07-31T13:54:04;4.30;;;4.10;;
15049;SDS011;7622;42.724;23.250;2023-07-31T13:56:31;4.65;;;4.38;;
15049;SDS011;7622;42.724;23.250;2023-07-31T13:59:00;4.85;;;4.50;;
15049;SDS011;7622;42.724;23.250;2023-07-31T14:01:27;5.18;;;4.85;;
15049;SDS011;7622;42.724;23.250;2023-07-31T14:03:53;5.60;;;4.68;;
15049;SDS011;7622;42.724;23.250;2023-07-31T14:06:20;4.57;;;4.28;;
15049;SDS011;7622;42.724;23.250;2023-07-31T14:08:47;4.88;;;4.47;;
15049;SDS011;7622;42.724;23.250;2023-07-31T14:11:14;4.72;;;3.80;;
15049;SDS011;7622;42.724;23.250;2023-07-31T14:13:41;21.20;;;5.22;;
15049;SDS011;7622;42.724;23.250;2023-07-31T14:16:09;4.47;;;3.67;;
15049;SDS011;7622;42.724;23.250;2023-07-31T14:18:35;4.28;;;3.90;;
15049;SDS011;7622;42.724;23.250;2023-07-31T14:21:02;4.45;;;4.13;;
15049;SDS011;7622;42.724;23.250;2023-07-31T14:23:28;5.32;;;4.18;;
15049;SDS011;7622;42.724;23.250;2023-07-31T14:25:55;4.07;;;3.70;;
15049;SDS011;7622;42.724;23.250;2023-07-31T14:28:21;5.70;;;4.00;;
15049;SDS011;7622;42.724;23.250;2023-07-31T14:30:48;3.78;;;3.50;;
15049;SDS011;7622;42.724;23.250;2023-07-31T14:33:16;4.32;;;3.92;;
15049;SDS011;7622;42.724;23.250;2023-07-31T14:35:43;4.05;;;3.70;;
15049;SDS011;7622;42.724;23.250;2023-07-31T14:38:10;3.83;;;3.63;;
15049;SDS011;7622;42.724;23.250;2023-07-31T14:40:36;4.18;;;3.88;;